Time;durP1;ratioP1;P1;durP2;ratioP2;P2;SDS_P1;SDS_P2;PMS_P1;PMS_P2;Temp;Humidity;BMP_temperature;BMP_pressure;BME280_temperature;BME280_humidity;BME280_pressure;Samples;Min_cycle;Max_cycle;Signal;HPM_P1;HPM_P2
2023/07/17 04:01:23;;;;;;;0.70;0.70;;;18.30;99.90;;;;;;5551860;23;20571;-71
2023/07/17 04:03:50;;;;;;;1.73;1.73;;;18.30;99.90;;;;;;4953677;29;20497;-71
2023/07/17 04:06:16;;;;;;;1.97;1.90;;;18.40;99.90;;;;;;4954116;29;20956;-70
2023/07/17 04:08:43;;;;;;;1.67;1.57;;;18.40;99.90;;;;;;4954203;29;20473;-71
2023/07/17 04:11:10;;;;;;;1.80;1.70;;;18.30;99.90;;;;;;4953781;28;20492;-71
2023/07/17 04:13:36;;;;;;;1.80;1.70;;;18.40;99.90;;;;;;4980612;23;20496;-70
2023/07/17 04:16:04;;;;;;;2.43;2.33;;;18.40;99.90;;;;;;4954007;29;20838;-70
2023/07/17 04:18:32;;;;;;;2.00;1.50;;;18.40;99.90;;;;;;4955036;29;20471;-70
2023/07/17 04:20:58;;;;;;;1.90;1.80;;;18.40;99.90;;;;;;4955103;29;20471;-70
2023/07/17 04:23:25;;;;;;;4.67;1.70;;;18.40;99.90;;;;;;4954923;28;20839;-70
2023/07/17 04:25:52;;;;;;;3.53;1.77;;;18.50;99.90;;;;;;4953670;29;20469;-70
2023/07/17 04:28:19;;;;;;;1.10;1.10;;;18.50;99.90;;;;;;4954775;29;20472;-70
2023/07/17 04:30:45;;;;;;;1.70;1.20;;;18.50;99.90;;;;;;4955557;29;20472;-70
2023/07/17 04:33:12;;;;;;;2.77;1.80;;;18.40;99.90;;;;;;4955561;28;20468;-70
2023/07/17 04:35:40;;;;;;;0.97;0.97;;;18.50;99.90;;;;;;4955604;29;20473;-70
2023/07/17 04:38:07;;;;;;;1.57;1.57;;;18.50;99.90;;;;;;4954869;29;20472;-70
2023/07/17 04:40:34;;;;;;;1.47;1.37;;;18.60;99.90;;;;;;4952136;29;20513;-70
2023/07/17 04:43:01;;;;;;;4.70;1.67;;;18.60;99.90;;;;;;4953893;28;20465;-70
2023/07/17 04:45:28;;;;;;;1.73;1.63;;;18.70;99.90;;;;;;4953252;29;20468;-70
2023/07/17 04:47:55;;;;;;;1.50;1.40;;;18.70;99.90;;;;;;4953162;29;20491;-70
2023/07/17 04:50:24;;;;;;;1.50;1.40;;;18.70;99.90;;;;;;4953729;29;20839;-71
2023/07/17 04:52:53;;;;;;;3.43;2.30;;;18.80;99.90;;;;;;4953299;29;20492;-70
2023/07/17 04:55:21;;;;;;;0.83;0.83;;;19.20;99.90;;;;;;4952398;28;20481;-70
2023/07/17 04:57:47;;;;;;;1.13;1.13;;;19.30;99.90;;;;;;4953229;29;20535;-70
2023/07/17 05:00:15;;;;;;;0.97;0.97;;;19.30;99.90;;;;;;4953062;29;20497;-70
2023/07/17 05:02:42;;;;;;;2.77;2.60;;;19.30;99.90;;;;;;4952477;29;20576;-70
2023/07/17 05:05:09;;;;;;;1.00;1.00;;;19.20;99.90;;;;;;4952747;28;20504;-71
2023/07/17 05:07:36;;;;;;;1.50;1.40;;;19.20;99.90;;;;;;4952765;29;20476;-70
2023/07/17 05:10:05;;;;;;;1.00;1.00;;;19.10;99.90;;;;;;4952981;29;20988;-71
2023/07/17 05:12:32;;;;;;;2.30;2.10;;;19.00;99.90;;;;;;4952725;29;20480;-70
2023/07/17 05:14:58;;;;;;;2.00;1.90;;;18.90;99.90;;;;;;4952448;28;20992;-70
2023/07/17 05:17:25;;;;;;;1.27;1.20;;;18.90;99.90;;;;;;4952487;29;20469;-70
2023/07/17 05:19:52;;;;;;;0.83;0.83;;;18.80;99.90;;;;;;4952928;29;20568;-70
2023/07/17 05:22:18;;;;;;;2.20;1.53;;;18.80;99.90;;;;;;4952944;29;20471;-70
2023/07/17 05:24:45;;;;;;;1.33;1.23;;;18.80;99.90;;;;;;4952307;28;20497;-70
2023/07/17 05:27:13;;;;;;;1.37;1.37;;;18.80;99.90;;;;;;4952407;29;20471;-70
2023/07/17 05:29:40;;;;;;;1.90;1.60;;;18.80;99.90;;;;;;4952652;29;20472;-70
2023/07/17 05:32:07;;;;;;;0.97;0.97;;;18.90;99.90;;;;;;4952071;29;20481;-70
2023/07/17 05:34:34;;;;;;;3.67;1.03;;;18.90;99.90;;;;;;4952369;28;20519;-70
2023/07/17 05:37:00;;;;;;;1.93;1.60;;;18.90;99.90;;;;;;4952499;29;20471;-71
2023/07/17 05:39:28;;;;;;;1.90;1.33;;;18.90;99.90;;;;;;4949749;28;20973;-71
2023/07/17 05:41:54;;;;;;;1.00;1.00;;;19.00;99.90;;;;;;4952254;29;20460;-71
2023/07/17 05:44:22;;;;;;;0.87;0.87;;;19.00;99.90;;;;;;4952450;28;20496;-70
2023/07/17 05:46:49;;;;;;;2.97;1.87;;;19.20;99.90;;;;;;4952239;29;20468;-70
2023/07/17 05:49:16;;;;;;;1.00;1.00;;;19.20;99.90;;;;;;4952788;29;20535;-71
2023/07/17 05:51:42;;;;;;;1.63;1.63;;;19.20;99.90;;;;;;4952203;29;20484;-71
2023/07/17 05:54:09;;;;;;;2.47;0.93;;;19.30;99.90;;;;;;4951829;28;20484;-72
2023/07/17 05:56:36;;;;;;;1.77;1.77;;;19.40;99.90;;;;;;4952158;29;20575;-70
2023/07/17 05:59:02;;;;;;;1.40;1.40;;;19.40;99.90;;;;;;4952121;29;20468;-71
2023/07/17 06:01:30;;;;;;;1.37;1.23;;;19.50;99.90;;;;;;4952130;29;20465;-70
2023/07/17 06:03:57;;;;;;;2.30;1.30;;;19.70;99.90;;;;;;4951108;28;20519;-71
2023/07/17 06:06:24;;;;;;;1.37;1.37;;;19.80;99.90;;;;;;4951626;28;20475;-70
2023/07/17 06:08:50;;;;;;;1.70;1.60;;;20.10;99.90;;;;;;4951742;29;20468;-70
2023/07/17 06:11:17;;;;;;;1.90;1.57;;;20.10;99.90;;;;;;4952082;29;20468;-70
2023/07/17 06:13:44;;;;;;;1.20;1.20;;;19.90;99.90;;;;;;4951718;28;20614;-70
2023/07/17 06:16:10;;;;;;;1.13;1.13;;;19.80;99.90;;;;;;4951525;29;20926;-70
2023/07/17 06:18:38;;;;;;;1.60;1.43;;;19.60;99.90;;;;;;4951468;29;20545;-70
2023/07/17 06:21:05;;;;;;;2.87;1.50;;;19.60;99.90;;;;;;4952132;29;20472;-71
2023/07/17 06:23:32;;;;;;;2.10;1.83;;;19.60;99.90;;;;;;4951529;28;20513;-71
2023/07/17 06:26:00;;;;;;;1.30;1.30;;;19.70;99.90;;;;;;4951653;29;20489;-70
2023/07/17 06:28:27;;;;;;;1.10;1.10;;;19.80;99.90;;;;;;4951915;29;20540;-71
2023/07/17 06:30:54;;;;;;;1.27;1.20;;;20.00;99.90;;;;;;4951794;29;20479;-71
2023/07/17 06:33:23;;;;;;;0.97;0.97;;;20.10;99.90;;;;;;4951052;28;20488;-70
2023/07/17 06:35:51;;;;;;;0.87;0.87;;;20.10;99.90;;;;;;4951672;29;20560;-71
2023/07/17 06:38:18;;;;;;;1.40;1.30;;;20.20;99.90;;;;;;4950340;29;20464;-71
2023/07/17 06:40:44;;;;;;;1.70;1.20;;;20.30;99.90;;;;;;4950604;29;20468;-71
2023/07/17 06:43:11;;;;;;;1.57;1.47;;;20.30;99.90;;;;;;4951306;28;20943;-71
2023/07/17 06:45:37;;;;;;;1.20;1.10;;;20.30;99.90;;;;;;4951536;29;20496;-71
2023/07/17 06:48:04;;;;;;;2.23;2.13;;;20.40;99.90;;;;;;4951190;29;20478;-71
2023/07/17 06:50:31;;;;;;;1.10;1.10;;;20.70;99.90;;;;;;4951437;29;20222;-71
2023/07/17 06:52:59;;;;;;;1.57;1.57;;;21.00;99.90;;;;;;4951930;29;20476;-70
2023/07/17 06:55:25;;;;;;;2.50;1.60;;;21.20;99.90;;;;;;4951884;29;20463;-70
2023/07/17 06:57:52;;;;;;;1.30;1.20;;;21.40;99.90;;;;;;4952898;29;20651;-70
2023/07/17 07:00:19;;;;;;;4.23;1.53;;;21.60;99.90;;;;;;4952641;29;20495;-70
2023/07/17 07:02:46;;;;;;;1.27;0.93;;;21.60;99.90;;;;;;4950944;29;20494;-70
2023/07/17 07:05:12;;;;;;;1.83;1.13;;;21.50;99.90;;;;;;4950880;28;20579;-71
2023/07/17 07:07:39;;;;;;;0.80;0.80;;;21.30;99.90;;;;;;4951894;29;20475;-70
2023/07/17 07:10:08;;;;;;;1.20;1.20;;;21.30;99.90;;;;;;4951529;29;20882;-70
2023/07/17 07:12:35;;;;;;;1.10;1.10;;;21.40;99.90;;;;;;4951419;29;20464;-70
2023/07/17 07:15:02;;;;;;;0.70;0.70;;;21.50;99.90;;;;;;4951108;28;20592;-70
2023/07/17 07:17:28;;;;;;;1.17;1.07;;;21.60;99.90;;;;;;4950794;29;20475;-70
2023/07/17 07:19:55;;;;;;;0.77;0.77;;;21.80;99.90;;;;;;4954179;28;20494;-71
2023/07/17 07:22:22;;;;;;;1.23;1.23;;;22.00;99.90;;;;;;4954960;29;20468;-71
2023/07/17 07:24:48;;;;;;;1.20;1.10;;;22.30;99.90;;;;;;4954700;28;20881;-70
2023/07/17 07:27:16;;;;;;;0.97;0.97;;;22.50;99.90;;;;;;4954747;29;20469;-71
2023/07/17 07:29:43;;;;;;;1.13;1.13;;;23.20;99.90;;;;;;4954910;29;20485;-70
2023/07/17 07:32:10;;;;;;;1.10;1.10;;;24.20;99.90;;;;;;4954080;29;20984;-70
2023/07/17 07:34:37;;;;;;;1.20;1.10;;;24.90;99.90;;;;;;4954691;28;20519;-70
2023/07/17 07:37:04;;;;;;;1.27;1.23;;;25.50;99.90;;;;;;4954747;29;20460;-70
2023/07/17 07:39:30;;;;;;;0.60;0.60;;;25.90;99.90;;;;;;4954554;28;20853;-70
2023/07/17 07:41:57;;;;;;;0.80;0.80;;;26.40;99.90;;;;;;4954672;29;20468;-70
2023/07/17 07:44:25;;;;;;;0.90;0.90;;;26.60;99.90;;;;;;4954229;28;20499;-70
2023/07/17 07:46:52;;;;;;;1.43;1.10;;;26.60;99.90;;;;;;4953693;29;20492;-70
2023/07/17 07:49:18;;;;;;;1.13;1.13;;;26.70;99.90;;;;;;4954737;29;20472;-70
2023/07/17 07:51:45;;;;;;;0.77;0.77;;;27.00;99.90;;;;;;4954345;29;20465;-69
2023/07/17 07:54:12;;;;;;;0.70;0.70;;;27.10;99.90;;;;;;4954086;28;20894;-70
2023/07/17 07:56:38;;;;;;;1.80;1.03;;;27.40;99.90;;;;;;4954534;29;20467;-70
2023/07/17 07:59:05;;;;;;;1.00;1.00;;;27.80;99.90;;;;;;4954505;29;20487;-70
2023/07/17 08:01:33;;;;;;;0.87;0.80;;;27.70;99.90;;;;;;4954669;29;20520;-70
2023/07/17 08:04:00;;;;;;;1.10;1.10;;;26.90;99.90;;;;;;4954124;28;20933;-70
2023/07/17 08:06:27;;;;;;;0.70;0.70;;;26.40;99.90;;;;;;4954499;29;20488;-70
2023/07/17 08:08:53;;;;;;;0.70;0.70;;;26.10;99.90;;;;;;4954570;29;20476;-69
2023/07/17 08:11:22;;;;;;;0.90;0.90;;;26.40;99.90;;;;;;4954595;29;20503;-70
2023/07/17 08:13:48;;;;;;;0.93;0.93;;;26.60;99.90;;;;;;4953611;28;20496;-70
2023/07/17 08:16:15;;;;;;;1.13;1.13;;;26.70;99.90;;;;;;4954152;29;20469;-69
2023/07/17 08:18:43;;;;;;;0.73;0.67;;;26.70;99.90;;;;;;4953453;29;20472;-69
2023/07/17 08:21:10;;;;;;;0.60;0.60;;;27.00;99.90;;;;;;4954225;29;20810;-69
2023/07/17 08:23:37;;;;;;;1.13;0.70;;;26.80;99.90;;;;;;4953717;28;20495;-70
2023/07/17 08:26:04;;;;;;;0.70;0.70;;;26.60;99.90;;;;;;4953474;29;21032;-69
2023/07/17 08:28:30;;;;;;;0.70;0.70;;;26.50;99.90;;;;;;4953579;29;20471;-69
2023/07/17 08:30:57;;;;;;;0.87;0.87;;;26.30;99.90;;;;;;4953722;28;20957;-70
2023/07/17 08:33:25;;;;;;;0.50;0.50;;;26.40;99.90;;;;;;4953705;28;20588;-70
2023/07/17 08:35:53;;;;;;;0.60;0.60;;;26.00;99.90;;;;;;4954254;29;20468;-70
2023/07/17 08:38:20;;;;;;;1.13;0.70;;;25.70;99.90;;;;;;4953728;29;20926;-70
2023/07/17 08:40:52;;;;;;;0.80;0.80;;;25.60;99.90;;;;;;4953471;29;20465;-70
2023/07/17 08:43:20;;;;;;;0.57;0.57;;;25.60;99.90;;;;;;4953459;28;20507;-69
2023/07/17 08:45:47;;;;;;;0.80;0.80;;;25.70;99.90;;;;;;4952991;29;20488;-70
2023/07/17 08:48:15;;;;;;;0.60;0.60;;;25.70;99.90;;;;;;4953282;29;20491;-70
2023/07/17 08:50:42;;;;;;;1.13;0.63;;;25.40;99.90;;;;;;4953293;29;20559;-70
2023/07/17 08:53:11;;;;;;;0.90;0.90;;;25.00;99.90;;;;;;4953177;28;20564;-69
2023/07/17 08:55:38;;;;;;;0.50;0.50;;;25.20;99.90;;;;;;4952646;29;20566;-69
2023/07/17 08:58:05;;;;;;;0.80;0.80;;;25.10;99.90;;;;;;4952941;29;20462;-69
2023/07/17 09:00:33;;;;;;;3.13;1.43;;;24.70;99.90;;;;;;4953385;29;20465;-69
2023/07/17 09:03:00;;;;;;;0.50;0.50;;;24.60;99.90;;;;;;4952390;28;20517;-70
2023/07/17 09:05:26;;;;;;;1.80;0.67;;;24.60;99.90;;;;;;4952610;29;20527;-70
2023/07/17 09:07:53;;;;;;;0.50;0.50;;;24.40;99.90;;;;;;4952790;29;20468;-69
2023/07/17 09:10:23;;;;;;;0.60;0.60;;;24.30;99.90;;;;;;4953088;29;20473;-69
2023/07/17 09:12:52;;;;;;;4.07;1.00;;;24.30;99.90;;;;;;4953052;29;20467;-69
2023/07/17 09:15:19;;;;;;;0.40;0.40;;;24.30;99.90;;;;;;4952438;28;20538;-70
2023/07/17 09:17:46;;;;;;;0.80;0.50;;;24.20;99.90;;;;;;4952061;29;20554;-69
2023/07/17 09:20:16;;;;;;;1.27;0.77;;;24.00;99.90;;;;;;4952766;29;20820;-69
2023/07/17 09:22:43;;;;;;;1.20;1.20;;;23.90;99.90;;;;;;4952857;29;20853;-69
2023/07/17 09:25:11;;;;;;;1.87;1.10;;;23.60;99.90;;;;;;4952336;28;20859;-69
2023/07/17 09:27:45;;;;;;;0.77;0.67;;;23.60;99.90;;;;;;4952572;29;20465;-69
2023/07/17 09:30:13;;;;;;;3.40;1.17;;;23.50;99.90;;;;;;4952782;29;20472;-70
2023/07/17 09:32:40;;;;;;;0.90;0.90;;;23.40;99.90;;;;;;4951651;29;21037;-69
2023/07/17 09:35:11;;;;;;;1.27;1.27;;;23.30;99.90;;;;;;4952113;28;20884;-69
2023/07/17 09:37:38;;;;;;;1.00;1.00;;;23.10;99.90;;;;;;4952271;29;20479;-69
2023/07/17 09:40:08;;;;;;;0.60;0.60;;;23.00;99.90;;;;;;4952069;28;20476;-69
2023/07/17 09:42:34;;;;;;;2.87;1.20;;;23.20;99.90;;;;;;4951637;28;20487;-70
2023/07/17 09:45:03;;;;;;;0.70;0.70;;;23.40;99.90;;;;;;4952074;28;20503;-70
2023/07/17 09:47:31;;;;;;;0.80;0.80;;;23.50;99.90;;;;;;4951472;29;20475;-70
2023/07/17 09:49:59;;;;;;;0.60;0.60;;;23.70;99.90;;;;;;4952205;29;20468;-69
2023/07/17 09:52:28;;;;;;;0.80;0.80;;;23.90;99.90;;;;;;4952384;29;20503;-70
2023/07/17 09:54:57;;;;;;;1.40;1.03;;;23.90;99.90;;;;;;4952604;28;20588;-70
2023/07/17 09:57:29;;;;;;;0.80;0.80;;;24.00;99.90;;;;;;4953274;29;20504;-70
2023/07/17 09:59:57;;;;;;;0.80;0.80;;;24.20;99.90;;;;;;4953363;29;20473;-70
2023/07/17 10:02:30;;;;;;;1.63;1.00;;;24.30;99.90;;;;;;4952300;29;20974;-70
2023/07/17 10:04:59;;;;;;;0.70;0.70;;;24.40;99.90;;;;;;4953990;28;20575;-70
2023/07/17 10:07:27;;;;;;;0.93;0.93;;;24.50;99.90;;;;;;4953138;29;20477;-70
2023/07/17 10:09:55;;;;;;;0.93;0.93;;;24.30;99.90;;;;;;4953734;29;20470;-70
2023/07/17 10:12:22;;;;;;;1.30;1.30;;;24.00;99.90;;;;;;4953649;29;20548;-70
2023/07/17 10:14:49;;;;;;;2.50;2.30;;;23.90;99.90;;;;;;4988299;23;20508;-69
2023/07/17 10:17:29;;;;;;;1.73;1.63;;;23.70;99.90;;;;;;4949438;29;20834;-69
2023/07/17 10:19:59;;;;;;;0.70;0.70;;;23.70;99.90;;;;;;4952495;29;20519;-69
2023/07/17 10:22:33;;;;;;;1.00;1.00;;;23.60;99.90;;;;;;4952868;29;20460;-70
2023/07/17 10:25:09;;;;;;;1.10;1.10;;;23.60;99.90;;;;;;4952218;28;20514;-68
2023/07/17 10:27:40;;;;;;;0.63;0.63;;;23.60;99.90;;;;;;4952818;29;20479;-68
2023/07/17 10:30:24;;;;;;;0.70;0.70;;;23.40;99.90;;;;;;4952521;29;20472;-68
2023/07/17 10:33:08;;;;;;;0.97;0.97;;;23.40;99.90;;;;;;4951561;29;20523;-68
2023/07/17 10:35:47;;;;;;;1.10;1.10;;;23.40;99.90;;;;;;4952532;28;20488;-68
2023/07/17 10:38:15;;;;;;;0.70;0.70;;;23.30;99.90;;;;;;4951901;28;20598;-68
2023/07/17 10:40:42;;;;;;;0.50;0.50;;;23.40;99.90;;;;;;4951875;29;20465;-68
2023/07/17 10:43:14;;;;;;;1.20;1.20;;;23.70;99.90;;;;;;4951845;29;20468;-68
2023/07/17 10:45:41;;;;;;;0.80;0.80;;;24.00;99.90;;;;;;4951416;28;20493;-68
2023/07/17 10:48:09;;;;;;;1.00;1.00;;;24.00;99.90;;;;;;4950878;29;20468;-68
2023/07/17 10:50:36;;;;;;;1.23;1.23;;;23.90;99.90;;;;;;4951927;29;20465;-68
2023/07/17 10:53:03;;;;;;;1.30;1.20;;;24.00;99.90;;;;;;4951933;28;20474;-68
2023/07/17 10:55:31;;;;;;;0.83;0.80;;;23.70;99.90;;;;;;4955360;28;20489;-68
2023/07/17 10:57:58;;;;;;;1.00;0.70;;;23.70;99.90;;;;;;4955727;29;20472;-67
2023/07/17 11:00:25;;;;;;;0.90;0.90;;;23.70;99.90;;;;;;4955510;29;20507;-68
2023/07/17 11:02:52;;;;;;;0.70;0.70;;;23.70;99.90;;;;;;4954712;29;20478;-67
2023/07/17 11:05:20;;;;;;;0.50;0.50;;;23.60;99.90;;;;;;4955235;28;20512;-67
2023/07/17 11:07:47;;;;;;;0.60;0.60;;;23.60;99.90;;;;;;4955330;29;20464;-68
2023/07/17 11:10:14;;;;;;;0.80;0.73;;;23.60;99.90;;;;;;4955503;29;20464;-68
2023/07/17 11:12:42;;;;;;;1.50;1.10;;;23.60;99.90;;;;;;4955297;29;20468;-67
2023/07/17 11:15:14;;;;;;;5.37;1.60;;;23.40;99.90;;;;;;4954779;28;20504;-70
2023/07/17 11:17:41;;;;;;;0.50;0.50;;;23.40;99.90;;;;;;4954485;29;20504;-70
2023/07/17 11:20:10;;;;;;;0.97;0.90;;;23.60;99.90;;;;;;4955384;29;20478;-67
2023/07/17 11:22:40;;;;;;;1.30;0.73;;;23.70;99.90;;;;;;4955247;29;20471;-67
2023/07/17 11:25:08;;;;;;;1.00;1.00;;;23.90;99.90;;;;;;4956900;28;20489;-69
2023/07/17 11:27:35;;;;;;;0.67;0.67;;;24.10;99.90;;;;;;4955721;29;20477;-70
2023/07/17 11:30:02;;;;;;;1.43;1.20;;;24.40;99.90;;;;;;4955440;29;20465;-68
2023/07/17 11:32:31;;;;;;;1.53;1.07;;;24.40;99.90;;;;;;4955340;29;20557;-67
2023/07/17 11:34:59;;;;;;;0.83;0.83;;;24.10;99.90;;;;;;4954593;28;20542;-68
2023/07/17 11:37:34;;;;;;;0.90;0.90;;;24.10;99.90;;;;;;4955110;29;20509;-67
2023/07/17 11:40:05;;;;;;;0.60;0.60;;;24.10;99.90;;;;;;4954693;28;20460;-68
2023/07/17 11:42:52;;;;;;;1.47;1.43;;;24.30;99.90;;;;;;4954830;29;20486;-68
2023/07/17 11:45:20;;;;;;;0.90;0.90;;;24.40;99.90;;;;;;4954934;28;20508;-67
2023/07/17 11:47:47;;;;;;;0.70;0.70;;;24.50;99.90;;;;;;4954445;29;20463;-68
2023/07/17 11:50:14;;;;;;;3.93;1.70;;;24.30;99.90;;;;;;4954585;29;20465;-67
2023/07/17 11:52:40;;;;;;;0.60;0.60;;;24.40;99.90;;;;;;4954252;29;20455;-67
2023/07/17 11:55:09;;;;;;;0.90;0.90;;;24.40;99.90;;;;;;4954548;28;20489;-67
2023/07/17 11:57:36;;;;;;;1.17;1.07;;;24.60;99.90;;;;;;4954418;29;20459;-68
2023/07/17 12:00:04;;;;;;;0.63;0.63;;;24.70;99.90;;;;;;4954586;29;20470;-68
2023/07/17 12:02:31;;;;;;;0.70;0.70;;;24.80;99.90;;;;;;4954260;29;20474;-67
2023/07/17 12:05:01;;;;;;;1.20;1.20;;;24.80;99.90;;;;;;4953056;28;20967;-68
2023/07/17 12:07:28;;;;;;;0.80;0.80;;;24.70;99.90;;;;;;4954627;29;20516;-68
2023/07/17 12:09:55;;;;;;;1.40;1.40;;;24.60;99.90;;;;;;4954328;29;20465;-68
2023/07/17 12:12:23;;;;;;;1.47;0.67;;;24.30;99.90;;;;;;4954420;29;20900;-67
2023/07/17 12:14:49;;;;;;;1.23;1.10;;;24.10;99.90;;;;;;4953735;28;21014;-67
2023/07/17 12:17:16;;;;;;;1.17;1.10;;;24.40;99.90;;;;;;4954132;29;20471;-68
2023/07/17 12:19:44;;;;;;;1.40;0.83;;;24.60;99.90;;;;;;4953548;29;20565;-67
2023/07/17 12:22:10;;;;;;;1.07;1.07;;;24.70;99.90;;;;;;4954049;29;20475;-68
2023/07/17 12:24:37;;;;;;;0.80;0.80;;;24.70;99.90;;;;;;4953800;28;20495;-68
2023/07/17 12:27:05;;;;;;;0.83;0.83;;;24.70;99.90;;;;;;4954033;29;20599;-70
2023/07/17 12:29:33;;;;;;;1.60;1.13;;;24.60;99.90;;;;;;4954048;29;20843;-67
2023/07/17 12:32:00;;;;;;;0.90;0.90;;;24.60;99.90;;;;;;4954020;29;20938;-67
2023/07/17 12:34:26;;;;;;;0.90;0.90;;;24.50;99.90;;;;;;4953246;28;20594;-70
2023/07/17 12:36:53;;;;;;;1.00;1.00;;;24.40;99.90;;;;;;4954487;29;20879;-69
2023/07/17 12:39:22;;;;;;;1.27;0.67;;;24.30;99.90;;;;;;4953549;29;20471;-67
2023/07/17 12:41:49;;;;;;;0.77;0.77;;;24.50;99.90;;;;;;4953917;29;20566;-71
2023/07/17 12:44:15;;;;;;;1.57;1.00;;;24.50;99.90;;;;;;4953983;28;20849;-67
2023/07/17 12:46:44;;;;;;;0.73;0.73;;;24.50;99.90;;;;;;4953287;29;20498;-67
2023/07/17 12:49:11;;;;;;;1.50;1.40;;;24.30;99.90;;;;;;4953079;29;20471;-68
2023/07/17 12:51:38;;;;;;;1.10;1.00;;;24.30;99.90;;;;;;4953657;29;20561;-67
2023/07/17 12:54:05;;;;;;;2.80;0.80;;;24.30;99.90;;;;;;4953064;28;20486;-69
2023/07/17 12:56:32;;;;;;;1.47;1.37;;;24.50;99.90;;;;;;4953492;29;20485;-67
2023/07/17 12:58:59;;;;;;;2.47;1.97;;;24.60;99.90;;;;;;4953309;29;20488;-67
2023/07/17 13:01:25;;;;;;;0.60;0.50;;;24.50;99.90;;;;;;4953589;29;20468;-68
2023/07/17 13:03:54;;;;;;;1.10;1.10;;;24.50;99.90;;;;;;4953072;28;20502;-68
2023/07/17 13:06:20;;;;;;;0.77;0.77;;;24.50;99.90;;;;;;4953170;29;20487;-68
2023/07/17 13:08:47;;;;;;;2.13;1.10;;;24.50;99.90;;;;;;4953280;29;20869;-68
2023/07/17 13:11:14;;;;;;;0.97;0.97;;;24.50;99.90;;;;;;4952978;29;20467;-69
2023/07/17 13:13:41;;;;;;;1.03;1.03;;;24.60;99.90;;;;;;4953127;28;20877;-68
2023/07/17 13:16:07;;;;;;;1.30;1.20;;;24.70;99.90;;;;;;4952529;28;20919;-71
2023/07/17 13:18:34;;;;;;;1.83;0.93;;;24.70;99.90;;;;;;4952399;29;20468;-68
2023/07/17 13:21:04;;;;;;;0.60;0.60;;;24.70;99.90;;;;;;4952942;29;20471;-68
2023/07/17 13:23:31;;;;;;;1.60;1.60;;;24.60;99.90;;;;;;4952894;28;20467;-68
2023/07/17 13:25:57;;;;;;;0.80;0.80;;;24.50;99.90;;;;;;4952802;29;20471;-67
2023/07/17 13:28:24;;;;;;;0.80;0.80;;;24.30;99.90;;;;;;4952526;29;20967;-68
2023/07/17 13:30:51;;;;;;;1.40;1.40;;;24.30;99.90;;;;;;4952993;29;20493;-68
2023/07/17 13:33:17;;;;;;;1.13;1.13;;;24.50;99.90;;;;;;4952693;29;20478;-68
2023/07/17 13:35:44;;;;;;;0.60;0.60;;;24.70;99.90;;;;;;4953255;29;20471;-69
2023/07/17 13:38:12;;;;;;;1.37;1.10;;;24.70;99.90;;;;;;4952730;29;20472;-67
2023/07/17 13:40:39;;;;;;;0.90;0.90;;;24.60;99.90;;;;;;4952562;29;20466;-68
2023/07/17 13:43:06;;;;;;;0.90;0.90;;;24.40;99.90;;;;;;4952260;29;20470;-67
2023/07/17 13:45:36;;;;;;;1.13;0.80;;;24.10;99.90;;;;;;4952487;28;20512;-68
2023/07/17 13:48:06;;;;;;;0.60;0.60;;;23.50;99.90;;;;;;4952147;29;20613;-68
2023/07/17 13:50:36;;;;;;;0.60;0.60;;;22.50;99.90;;;;;;4952593;29;20618;-68
2023/07/17 13:53:03;;;;;;;0.93;0.93;;;21.90;99.90;;;;;;4952876;29;20645;-68
2023/07/17 13:55:32;;;;;;;0.67;0.67;;;21.60;99.90;;;;;;4951763;28;20560;-69
2023/07/17 13:58:00;;;;;;;1.60;0.77;;;21.50;99.90;;;;;;4952118;29;20466;-70
2023/07/17 14:00:31;;;;;;;0.50;0.50;;;21.50;99.90;;;;;;4952549;29;20466;-69
2023/07/17 14:03:05;;;;;;;0.57;0.57;;;21.40;99.90;;;;;;4952270;29;20903;-68
2023/07/17 14:05:35;;;;;;;1.07;0.80;;;21.30;99.90;;;;;;4952372;28;20602;-68
2023/07/17 14:08:10;;;;;;;0.40;0.40;;;21.00;99.90;;;;;;4952318;29;20495;-69
2023/07/17 14:10:48;;;;;;;0.40;0.40;;;20.90;99.90;;;;;;4952423;29;20450;-73
2023/07/17 14:13:22;;;;;;;0.90;0.90;;;20.80;99.90;;;;;;4952886;29;20484;-68
2023/07/17 14:16:11;;;;;;;1.10;1.10;;;20.60;99.90;;;;;;4953011;29;20563;-70
2023/07/17 14:18:41;;;;;;;0.50;0.50;;;20.50;99.90;;;;;;4952910;29;20511;-68
2023/07/17 14:21:10;;;;;;;0.63;0.63;;;20.40;99.90;;;;;;4952330;29;20457;-68
2023/07/17 14:23:38;;;;;;;2.63;0.80;;;20.40;99.90;;;;;;4951550;28;20480;-69
2023/07/17 14:26:08;;;;;;;2.70;2.60;;;20.40;99.90;;;;;;4952200;29;20469;-69
2023/07/17 14:28:35;;;;;;;1.10;1.00;;;20.40;99.90;;;;;;4951965;28;20457;-69
2023/07/17 14:31:04;;;;;;;0.60;0.60;;;20.40;99.90;;;;;;4951945;29;20465;-69
2023/07/17 14:33:35;;;;;;;1.30;0.77;;;20.40;99.90;;;;;;4952500;28;20461;-69
2023/07/17 14:36:05;;;;;;;0.83;0.83;;;20.30;99.90;;;;;;4951596;29;20657;-67
2023/07/17 14:38:39;;;;;;;1.20;1.20;;;20.30;99.90;;;;;;4951619;28;21051;-67
2023/07/17 14:41:11;;;;;;;2.57;0.70;;;20.60;99.90;;;;;;4951538;29;20460;-68
2023/07/17 14:43:39;;;;;;;1.50;1.40;;;21.00;99.90;;;;;;4932131;29;20516;-69
2023/07/17 14:46:08;;;;;;;1.60;0.90;;;21.00;99.90;;;;;;4931815;29;20967;-71
2023/07/17 14:48:37;;;;;;;2.27;0.90;;;20.90;99.90;;;;;;4932011;29;20534;-68
2023/07/17 14:51:06;;;;;;;1.13;1.13;;;20.80;99.90;;;;;;4932303;29;20859;-68
2023/07/17 14:53:51;;;;;;;1.30;1.23;;;20.80;99.90;;;;;;4932219;29;20469;-69
2023/07/17 14:56:21;;;;;;;0.60;0.60;;;20.70;99.90;;;;;;4932335;29;20552;-68
2023/07/17 14:58:49;;;;;;;1.20;1.10;;;20.80;99.90;;;;;;4931275;29;20548;-68
2023/07/17 15:01:27;;;;;;;0.90;0.90;;;20.90;99.90;;;;;;4932093;29;20737;-68
2023/07/17 15:03:57;;;;;;;0.60;0.60;;;20.90;99.90;;;;;;4931311;29;20565;-70
2023/07/17 15:06:41;;;;;;;0.97;0.97;;;21.00;99.90;;;;;;4931652;29;20466;-69
2023/07/17 15:09:19;;;;;;;0.60;0.53;;;21.00;99.90;;;;;;4932260;29;20904;-68
2023/07/17 15:11:57;;;;;;;0.60;0.57;;;20.90;99.90;;;;;;4932097;29;20976;-68
2023/07/17 15:14:26;;;;;;;0.30;0.30;;;21.00;99.90;;;;;;4931495;29;20588;-68
2023/07/17 15:19:53;;;;;;;1.90;0.90;;;21.10;99.90;;;;;;4930917;29;20475;-70
2023/07/17 15:22:20;;;;;;;0.37;0.37;;;21.20;99.90;;;;;;4932307;29;20494;-69
2023/07/17 15:24:51;;;;;;;0.53;0.53;;;21.30;99.90;;;;;;4931770;29;20832;-68
2023/07/17 15:27:19;;;;;;;0.60;0.60;;;21.30;99.90;;;;;;4931888;29;20538;-68
2023/07/17 15:35:23;;;;;;;0.50;0.50;;;22.50;99.90;;;;;;4930300;29;20491;-68
2023/07/17 15:37:50;;;;;;;0.40;0.40;;;22.60;99.90;;;;;;4932186;29;20455;-68
2023/07/17 15:40:17;;;;;;;0.50;0.50;;;22.60;99.90;;;;;;4950974;28;20474;-72
2023/07/17 15:42:50;;;;;;;0.40;0.40;;;22.70;99.90;;;;;;4955003;29;20464;-68
2023/07/17 15:45:21;;;;;;;1.70;0.60;;;22.70;99.90;;;;;;4954723;28;20523;-70
2023/07/17 15:47:48;;;;;;;0.60;0.40;;;22.70;99.90;;;;;;4953712;29;20579;-69
2023/07/17 15:50:16;;;;;;;0.60;0.60;;;22.80;99.90;;;;;;4954583;29;20501;-70
2023/07/17 15:52:42;;;;;;;0.60;0.60;;;22.90;99.90;;;;;;4954666;29;20525;-70
2023/07/17 15:55:09;;;;;;;0.77;0.77;;;23.10;99.90;;;;;;4954382;28;20488;-70
2023/07/17 15:57:36;;;;;;;1.00;1.00;;;23.10;99.90;;;;;;4954284;29;20472;-70
2023/07/17 16:00:06;;;;;;;0.53;0.50;;;22.80;99.90;;;;;;4954284;29;20471;-70
2023/07/17 16:02:32;;;;;;;0.40;0.40;;;22.70;99.90;;;;;;4953981;29;20478;-70
2023/07/17 16:04:59;;;;;;;0.57;0.57;;;22.50;99.90;;;;;;4953743;28;20567;-70
2023/07/17 16:07:26;;;;;;;1.70;0.70;;;22.40;99.90;;;;;;4954086;29;20487;-70
2023/07/17 16:09:52;;;;;;;1.60;0.50;;;22.30;99.90;;;;;;4954010;29;20471;-70
2023/07/17 16:12:19;;;;;;;0.40;0.40;;;22.20;99.90;;;;;;4954008;29;20473;-70
2023/07/17 16:14:46;;;;;;;1.07;1.07;;;22.00;99.90;;;;;;4979433;23;21022;-72
2023/07/17 16:17:14;;;;;;;1.07;0.70;;;21.90;99.90;;;;;;4953862;29;20871;-72
2023/07/17 16:19:43;;;;;;;0.83;0.83;;;21.70;99.90;;;;;;4955478;29;20465;-72
2023/07/17 16:22:10;;;;;;;1.23;0.90;;;21.60;99.90;;;;;;4956310;29;20480;-71
2023/07/17 16:24:37;;;;;;;0.57;0.57;;;21.50;99.90;;;;;;4954437;28;20513;-72
2023/07/17 16:27:05;;;;;;;0.77;0.73;;;21.30;99.90;;;;;;4954313;29;20493;-72
2023/07/17 16:29:31;;;;;;;0.80;0.80;;;21.20;99.90;;;;;;4954052;29;20560;-72
2023/07/17 16:31:58;;;;;;;1.37;1.27;;;21.10;99.90;;;;;;4953890;29;20461;-72
2023/07/17 16:34:27;;;;;;;3.50;1.00;;;21.00;99.90;;;;;;4953287;28;20946;-71
2023/07/17 16:36:54;;;;;;;0.97;0.80;;;20.90;99.90;;;;;;4954153;29;20464;-71
2023/07/17 16:39:20;;;;;;;0.90;0.50;;;20.70;99.90;;;;;;4953618;28;20491;-71
2023/07/17 16:41:47;;;;;;;1.20;1.20;;;20.60;99.90;;;;;;4954101;29;20456;-72
2023/07/17 16:44:13;;;;;;;0.43;0.43;;;20.40;99.90;;;;;;4953455;28;20240;-71
2023/07/17 16:46:40;;;;;;;0.80;0.80;;;20.30;99.90;;;;;;4953821;29;20464;-71
2023/07/17 16:49:07;;;;;;;3.10;0.50;;;20.30;99.90;;;;;;4952939;29;20516;-72
2023/07/17 16:51:35;;;;;;;0.50;0.50;;;20.10;99.90;;;;;;4953838;28;20464;-71
2023/07/17 16:54:02;;;;;;;0.50;0.50;;;20.00;99.90;;;;;;4953609;28;20488;-73
2023/07/17 16:56:29;;;;;;;0.40;0.33;;;20.00;99.90;;;;;;4954980;29;20472;-72
2023/07/17 16:58:55;;;;;;;3.03;0.90;;;19.90;99.90;;;;;;4954992;29;20969;-73
2023/07/17 17:01:22;;;;;;;0.80;0.80;;;20.00;99.90;;;;;;4956206;29;20461;-72